Time;durP1;ratioP1;P1;durP2;ratioP2;P2;SDS_P1;SDS_P2;PMS_P1;PMS_P2;Temp;Humidity;BMP_temperature;BMP_pressure;BME280_temperature;BME280_humidity;BME280_pressure;Samples;Min_cycle;Max_cycle;Signal;HPM_P1;HPM_P2
2023/07/01 00:02:10;;;;;;;7.75;3.22;;;;;;;19.48;100.00;99687.03;5050909;28;20086;-62
2023/07/01 00:04:36;;;;;;;7.88;2.72;;;;;;;19.43;100.00;99683.81;5046263;28;20033;-61
2023/07/01 00:07:01;;;;;;;6.60;3.10;;;;;;;19.44;100.00;99687.34;5047671;28;20064;-62
2023/07/01 00:09:26;;;;;;;6.57;2.83;;;;;;;19.37;100.00;99684.22;5042038;28;20039;-62
2023/07/01 00:11:53;;;;;;;5.72;3.08;;;;;;;19.38;100.00;99680.59;5049696;28;20017;-61
2023/07/01 00:14:19;;;;;;;5.63;2.95;;;;;;;19.33;100.00;99671.97;5049346;28;20817;-61
2023/07/01 00:16:44;;;;;;;8.10;4.35;;;;;;;19.31;100.00;99675.72;5050781;28;20036;-62
2023/07/01 00:19:10;;;;;;;6.05;2.90;;;;;;;19.27;100.00;99677.78;5049558;28;20025;-62
2023/07/01 00:21:35;;;;;;;7.13;2.92;;;;;;;19.21;100.00;99672.81;5050790;28;20031;-62
2023/07/01 00:24:00;;;;;;;7.10;3.03;;;;;;;19.14;100.00;99670.69;5048026;28;20027;-62
2023/07/01 00:26:26;;;;;;;7.68;2.90;;;;;;;19.10;100.00;99674.59;5049854;28;20413;-62
2023/07/01 00:28:53;;;;;;;8.63;2.58;;;;;;;19.12;100.00;99668.13;5049012;28;20029;-61
2023/07/01 00:31:18;;;;;;;4.93;2.30;;;;;;;19.12;100.00;99672.63;5048685;28;20635;-62
2023/07/01 00:33:43;;;;;;;6.00;2.35;;;;;;;19.10;100.00;99669.19;5049246;28;20035;-62
2023/07/01 00:36:09;;;;;;;5.10;2.83;;;;;;;19.12;100.00;99659.16;5047894;28;20036;-61
2023/07/01 00:38:34;;;;;;;6.78;2.30;;;;;;;19.12;100.00;99662.72;5050059;28;20028;-61
2023/07/01 00:41:00;;;;;;;5.38;3.05;;;;;;;19.06;100.00;99663.16;5048662;28;20468;-61
2023/07/01 00:43:25;;;;;;;5.95;2.60;;;;;;;19.08;100.00;99660.34;5049572;28;20600;-61
2023/07/01 00:45:51;;;;;;;5.85;2.47;;;;;;;19.06;100.00;99659.63;5049215;28;20037;-62
2023/07/01 00:48:24;;;;;;;5.75;2.78;;;;;;;19.04;100.00;99666.94;5049616;28;20025;-62
2023/07/01 00:50:51;;;;;;;5.72;2.70;;;;;;;19.01;100.00;99657.22;5047481;28;20041;-62
2023/07/01 00:53:17;;;;;;;6.75;2.58;;;;;;;18.98;100.00;99656.59;5047723;28;20033;-62
2023/07/01 00:55:42;;;;;;;6.28;2.83;;;;;;;18.95;100.00;99660.38;5049124;28;20062;-62
2023/07/01 00:58:08;;;;;;;5.97;2.83;;;;;;;18.96;100.00;99655.88;5048994;28;20400;-62
2023/07/01 01:00:37;;;;;;;5.72;2.42;;;;;;;18.93;100.00;99650.69;5050057;28;20425;-62
2023/07/01 01:03:26;;;;;;;12.55;3.17;;;;;;;18.90;100.00;99649.06;5042569;28;20465;-62
2023/07/01 01:06:17;;;;;;;7.03;3.30;;;;;;;18.86;100.00;99654.81;5041593;28;20052;-62
2023/07/01 01:09:11;;;;;;;5.35;2.92;;;;;;;18.83;100.00;99645.09;5050282;28;20017;-62
2023/07/01 01:11:41;;;;;;;6.28;3.22;;;;;;;18.79;100.00;99648.13;5049610;28;20028;-62
2023/07/01 01:14:10;;;;;;;6.47;3.75;;;;;;;18.76;100.00;99648.34;5050497;28;20036;-62
2023/07/01 01:16:37;;;;;;;7.55;3.28;;;;;;;18.71;100.00;99640.59;5049446;28;20028;-61
2023/07/01 01:19:09;;;;;;;8.57;3.38;;;;;;;18.71;100.00;99646.00;5030187;28;20029;-62
2023/07/01 01:21:36;;;;;;;8.30;3.13;;;;;;;18.69;100.00;99645.22;5029177;28;20034;-62
2023/07/01 01:24:06;;;;;;;7.82;4.00;;;;;;;18.70;100.00;99649.63;5044545;28;20048;-62
2023/07/01 01:26:43;;;;;;;7.38;3.47;;;;;;;18.66;100.00;99655.38;5048128;28;20063;-62
2023/07/01 01:29:08;;;;;;;7.05;3.05;;;;;;;18.63;100.00;99647.50;5048433;28;20037;-62
2023/07/01 01:31:35;;;;;;;5.72;3.10;;;;;;;18.57;100.00;99639.84;5048520;28;20166;-62
2023/07/01 01:34:00;;;;;;;6.78;2.92;;;;;;;18.57;100.00;99650.59;5048719;28;20432;-62
2023/07/01 01:36:41;;;;;;;7.43;2.90;;;;;;;18.56;100.00;99646.22;5046157;28;20033;-62
2023/07/01 01:39:11;;;;;;;8.45;3.25;;;;;;;18.53;100.00;99641.03;5047901;28;20044;-62
2023/07/01 01:41:52;;;;;;;7.88;3.90;;;;;;;18.54;100.00;99648.13;5048374;28;20480;-62
2023/07/01 01:44:25;;;;;;;6.50;2.85;;;;;;;18.49;100.00;99640.38;5048728;28;20487;-62
2023/07/01 01:46:51;;;;;;;9.65;3.53;;;;;;;18.49;100.00;99640.38;5048347;28;20036;-62
2023/07/01 01:49:18;;;;;;;7.22;3.35;;;;;;;18.51;100.00;99641.16;5048874;28;20104;-62
2023/07/01 01:51:45;;;;;;;4.82;2.63;;;;;;;18.48;100.00;99632.41;5049634;28;20033;-62
2023/07/01 01:54:11;;;;;;;5.90;3.20;;;;;;;18.45;100.00;99636.19;5049734;28;20060;-62
2023/07/01 01:56:37;;;;;;;8.73;3.72;;;;;;;18.43;100.00;99634.56;5048409;28;20059;-61
2023/07/01 01:59:03;;;;;;;5.55;3.13;;;;;;;18.38;100.00;99630.31;5047243;28;20017;-62
2023/07/01 02:01:29;;;;;;;4.68;2.80;;;;;;;18.37;100.00;99634.00;5049108;28;20021;-62
2023/07/01 02:03:55;;;;;;;6.95;3.08;;;;;;;18.34;100.00;99631.53;5049385;28;20552;-62
2023/07/01 02:06:20;;;;;;;7.65;3.08;;;;;;;18.31;100.00;99634.44;5046430;28;20398;-62
2023/07/01 02:08:46;;;;;;;7.13;3.83;;;;;;;18.27;100.00;99629.34;5027661;28;20061;-62
2023/07/01 02:11:11;;;;;;;8.25;3.25;;;;;;;18.25;100.00;99629.47;5041822;28;20058;-62
2023/07/01 02:13:37;;;;;;;5.45;2.75;;;;;;;18.28;100.00;99636.50;5036150;28;20037;-62
2023/07/01 02:16:02;;;;;;;5.57;2.85;;;;;;;18.28;100.00;99634.66;5028798;28;20025;-61
2023/07/01 02:18:27;;;;;;;6.93;3.10;;;;;;;18.27;100.00;99637.44;5027578;28;20028;-62
2023/07/01 02:20:53;;;;;;;6.07;3.65;;;;;;;18.24;100.00;99635.84;5028325;28;20029;-62
2023/07/01 02:23:18;;;;;;;6.28;3.08;;;;;;;18.21;100.00;99633.38;5028272;28;20033;-62
2023/07/01 02:25:44;;;;;;;5.88;4.07;;;;;;;18.21;100.00;99625.28;5027269;28;20124;-62
2023/07/01 02:28:09;;;;;;;5.95;3.13;;;;;;;18.22;100.00;99634.19;5026963;28;20087;-62
2023/07/01 02:30:35;;;;;;;5.57;3.15;;;;;;;18.23;100.00;99631.44;5026856;28;20442;-62
2023/07/01 02:33:01;;;;;;;6.13;2.80;;;;;;;18.22;100.00;99632.38;5027367;28;20079;-62
2023/07/01 02:35:27;;;;;;;7.07;3.10;;;;;;;18.18;100.00;99635.41;5027158;28;20025;-62
2023/07/01 02:37:52;;;;;;;10.65;4.22;;;;;;;18.15;100.00;99631.06;5030225;28;20021;-62
2023/07/01 02:40:17;;;;;;;6.40;3.75;;;;;;;18.14;100.00;99632.06;5029521;28;20366;-62
2023/07/01 02:42:43;;;;;;;8.30;3.72;;;;;;;18.11;100.00;99634.09;5028556;28;20029;-62
2023/07/01 02:45:09;;;;;;;9.82;4.00;;;;;;;18.10;100.00;99633.22;5029347;28;20128;-62
2023/07/01 02:47:34;;;;;;;6.25;3.65;;;;;;;18.08;100.00;99632.50;5040026;28;20124;-62
2023/07/01 02:50:00;;;;;;;8.27;4.20;;;;;;;18.05;100.00;99635.41;5037112;28;20041;-62
2023/07/01 02:52:26;;;;;;;8.57;3.85;;;;;;;18.01;100.00;99633.88;5033377;28;20128;-62
2023/07/01 02:54:51;;;;;;;6.70;3.83;;;;;;;18.01;100.00;99633.88;5033301;28;20116;-62
2023/07/01 02:57:17;;;;;;;12.88;4.05;;;;;;;18.01;100.00;99633.88;5033051;28;20509;-62
2023/07/01 02:59:43;;;;;;;7.53;3.42;;;;;;;17.98;100.00;99634.09;5032551;28;20183;-62
2023/07/01 03:02:08;;;;;;;7.50;3.13;;;;;;;17.91;100.00;99631.91;5032391;28;20029;-62
2023/07/01 03:04:34;;;;;;;6.70;3.25;;;;;;;17.92;100.00;99628.28;5034747;28;20108;-62
2023/07/01 03:06:59;;;;;;;8.18;3.60;;;;;;;17.90;100.00;99635.56;5052770;28;20518;-62
2023/07/01 03:09:25;;;;;;;8.60;4.43;;;;;;;17.90;100.00;99635.56;5052425;28;20108;-62
2023/07/01 03:11:52;;;;;;;16.52;4.13;;;;;;;17.87;100.00;99631.28;5051280;28;20494;-62
2023/07/01 03:14:17;;;;;;;15.13;3.80;;;;;;;17.83;100.00;99639.66;5051699;28;20028;-62
2023/07/01 03:16:44;;;;;;;9.48;3.60;;;;;;;17.79;100.00;99638.16;5067052;28;20388;-61
2023/07/01 03:19:10;;;;;;;7.55;3.55;;;;;;;17.80;100.00;99646.13;5051089;28;20083;-62
2023/07/01 03:21:36;;;;;;;6.28;3.40;;;;;;;17.76;100.00;99638.34;5052119;28;20037;-62
2023/07/01 03:24:02;;;;;;;7.72;3.97;;;;;;;17.76;100.00;99639.19;5050491;28;20021;-61
2023/07/01 03:26:27;;;;;;;8.20;3.20;;;;;;;17.76;100.00;99633.81;5051352;28;20025;-62
2023/07/01 03:28:53;;;;;;;8.00;4.00;;;;;;;17.78;100.00;99642.66;5048524;28;20029;-62
2023/07/01 03:31:22;;;;;;;7.97;3.75;;;;;;;17.70;100.00;99628.00;5051295;28;20028;-61
2023/07/01 03:33:48;;;;;;;10.02;4.22;;;;;;;17.78;100.00;99633.72;5050966;28;20449;-62
2023/07/01 03:36:14;;;;;;;7.63;3.50;;;;;;;17.78;100.00;99637.28;5050225;28;20032;-61
2023/07/01 03:38:39;;;;;;;7.38;3.88;;;;;;;17.79;100.00;99636.28;5036973;28;20032;-62
2023/07/01 03:41:07;;;;;;;5.80;3.40;;;;;;;17.79;100.00;99638.97;5047422;28;20491;-61
2023/07/01 03:43:35;;;;;;;7.50;3.63;;;;;;;17.74;100.00;99632.22;5048495;28;20108;-61
2023/07/01 03:46:01;;;;;;;7.38;3.60;;;;;;;17.73;100.00;99634.03;5051738;28;20073;-61
2023/07/01 03:48:27;;;;;;;6.93;3.92;;;;;;;17.72;100.00;99637.69;5036652;28;20520;-61
2023/07/01 03:50:53;;;;;;;8.73;3.35;;;;;;;17.71;100.00;99641.34;5031521;28;20096;-62
2023/07/01 03:53:18;;;;;;;7.32;3.85;;;;;;;17.73;100.00;99634.03;5049905;28;20163;-62
2023/07/01 03:55:43;;;;;;;7.03;3.33;;;;;;;17.71;100.00;99633.28;5050865;28;20115;-62
2023/07/01 03:58:09;;;;;;;6.30;3.35;;;;;;;17.73;100.00;99649.31;5049787;28;20499;-62
2023/07/01 04:00:34;;;;;;;7.78;3.45;;;;;;;17.76;100.00;99638.34;5050214;28;20130;-61
2023/07/01 04:03:05;;;;;;;8.95;4.05;;;;;;;17.76;100.00;99635.66;5050296;28;20421;-62
2023/07/01 04:05:34;;;;;;;7.00;3.60;;;;;;;17.76;100.00;99636.50;5048520;28;20063;-62
2023/07/01 04:08:00;;;;;;;5.60;2.85;;;;;;;17.76;100.00;99638.34;5043324;28;20021;-61
2023/07/01 04:10:25;;;;;;;7.60;3.30;;;;;;;17.80;100.00;99640.72;5028335;28;20045;-61
2023/07/01 04:12:51;;;;;;;8.35;4.35;;;;;;;17.82;100.00;99637.94;5032400;28;20523;-62
2023/07/01 04:15:16;;;;;;;6.80;3.75;;;;;;;17.89;100.00;99640.09;5044721;28;20036;-62
2023/07/01 04:17:44;;;;;;;6.82;3.25;;;;;;;17.87;100.00;99636.66;5047919;28;20040;-62
2023/07/01 04:20:11;;;;;;;10.55;3.67;;;;;;;17.89;100.00;99641.94;5046849;28;20063;-62
2023/07/01 04:22:37;;;;;;;5.95;3.38;;;;;;;17.93;100.00;99641.63;5029381;28;20033;-62
2023/07/01 04:25:03;;;;;;;10.00;4.25;;;;;;;17.88;100.00;99638.38;5028436;28;20040;-62
2023/07/01 04:27:29;;;;;;;6.53;3.15;;;;;;;17.93;100.00;99636.22;5040374;28;20025;-61
2023/07/01 04:29:54;;;;;;;5.30;2.80;;;;;;;18.00;100.00;99642.06;5047254;28;20087;-61
2023/07/01 04:32:20;;;;;;;9.68;3.53;;;;;;;18.02;100.00;99643.66;5048333;28;20510;-62
2023/07/01 04:34:45;;;;;;;8.23;3.55;;;;;;;18.02;100.00;99635.59;5049189;28;20064;-62
2023/07/01 04:37:10;;;;;;;7.97;3.33;;;;;;;18.07;100.00;99633.44;5049225;28;20440;-61
2023/07/01 04:39:36;;;;;;;6.80;3.47;;;;;;;18.11;100.00;99637.66;5049309;28;20032;-62
2023/07/01 04:42:02;;;;;;;7.28;3.72;;;;;;;18.17;100.00;99637.22;5050009;28;20021;-62
2023/07/01 04:44:28;;;;;;;7.00;3.35;;;;;;;18.21;100.00;99630.66;5049526;28;20031;-62
2023/07/01 04:46:53;;;;;;;10.48;3.55;;;;;;;18.21;100.00;99625.28;5049504;28;20112;-62
2023/07/01 04:49:19;;;;;;;6.60;3.22;;;;;;;18.26;100.00;99623.13;5049079;28;20131;-62
2023/07/01 04:51:44;;;;;;;11.27;2.85;;;;;;;18.35;100.00;99624.31;5049390;28;20045;-61
2023/07/01 04:54:09;;;;;;;6.50;3.60;;;;;;;18.41;100.00;99623.03;5030520;28;20135;-61
2023/07/01 04:56:36;;;;;;;5.70;2.88;;;;;;;18.48;100.00;99627.03;5049511;28;20020;-61
2023/07/01 04:59:02;;;;;;;6.75;3.53;;;;;;;18.50;100.00;99625.09;5049106;28;20024;-61
2023/07/01 05:01:27;;;;;;;6.72;3.28;;;;;;;18.50;100.00;99614.31;5048681;28;20622;-61
2023/07/01 05:03:53;;;;;;;7.05;3.55;;;;;;;18.55;100.00;99625.63;5050240;28;20028;-62
2023/07/01 05:06:18;;;;;;;5.70;3.00;;;;;;;18.63;100.00;99623.25;5047760;28;20057;-62
2023/07/01 05:08:44;;;;;;;5.40;3.05;;;;;;;18.77;100.00;99623.09;5048068;28;20033;-61
2023/07/01 05:11:10;;;;;;;7.55;3.88;;;;;;;18.85;100.00;99620.72;5036388;28;20083;-61
2023/07/01 05:13:35;;;;;;;8.95;3.65;;;;;;;18.91;100.00;99625.69;5040297;28;20459;-62
2023/07/01 05:16:01;;;;;;;6.55;3.55;;;;;;;19.01;100.00;99626.75;5049134;28;20040;-61
2023/07/01 05:18:26;;;;;;;10.07;3.42;;;;;;;19.13;99.89;99624.00;5047006;28;20066;-61
2023/07/01 05:20:52;;;;;;;6.68;3.40;;;;;;;19.17;98.37;99621.94;5047662;28;20066;-61
2023/07/01 05:23:17;;;;;;;8.82;3.40;;;;;;;19.29;97.81;99626.47;5047727;28;20021;-61
2023/07/01 05:25:42;;;;;;;8.98;3.03;;;;;;;19.33;97.19;99618.03;5047220;28;20069;-62
2023/07/01 05:28:08;;;;;;;8.38;3.50;;;;;;;19.41;96.21;99625.53;5046270;28;20041;-62
2023/07/01 05:30:33;;;;;;;6.28;3.00;;;;;;;19.45;95.46;99627.91;5047296;28;20124;-61
2023/07/01 05:32:59;;;;;;;9.13;3.80;;;;;;;19.54;94.98;99618.22;5048128;28;20052;-61
2023/07/01 05:35:24;;;;;;;11.05;3.38;;;;;;;19.65;95.12;99618.31;5048224;28;20047;-61
2023/07/01 05:37:52;;;;;;;8.75;3.08;;;;;;;19.72;93.50;99618.69;5049125;28;20547;-61
2023/07/01 05:40:18;;;;;;;5.47;2.72;;;;;;;19.77;93.13;99611.13;5049224;28;20029;-61
2023/07/01 05:42:45;;;;;;;6.47;2.88;;;;;;;19.80;92.42;99614.44;5049290;28;20309;-61
2023/07/01 05:45:11;;;;;;;8.45;3.17;;;;;;;19.82;91.75;99615.16;5029947;28;20030;-61
2023/07/01 05:47:36;;;;;;;6.57;2.70;;;;;;;19.88;90.94;99614.72;5049343;28;20404;-61
2023/07/01 05:50:02;;;;;;;6.60;2.85;;;;;;;19.93;90.15;99612.53;5048983;28;20116;-62
2023/07/01 05:52:27;;;;;;;7.10;2.72;;;;;;;19.97;90.22;99608.59;5048852;28;20384;-61
2023/07/01 05:54:52;;;;;;;5.30;2.80;;;;;;;20.09;90.03;99602.25;5049225;28;20071;-61
2023/07/01 05:57:18;;;;;;;6.65;2.83;;;;;;;20.20;88.92;99605.00;5046519;28;20025;-62
2023/07/01 05:59:43;;;;;;;6.60;2.85;;;;;;;20.32;88.28;99609.44;5049254;28;20116;-62
2023/07/01 06:02:09;;;;;;;4.45;2.70;;;;;;;20.46;88.68;99619.16;5048326;28;20033;-62
2023/07/01 06:04:34;;;;;;;5.53;2.60;;;;;;;20.46;86.03;99617.31;5047459;28;20123;-61
2023/07/01 06:07:00;;;;;;;5.55;2.08;;;;;;;20.59;84.51;99619.91;5030092;28;20767;-61
2023/07/01 06:09:25;;;;;;;5.15;2.83;;;;;;;20.64;82.16;99620.41;5048104;28;20040;-61
2023/07/01 06:11:52;;;;;;;7.90;2.78;;;;;;;20.74;81.06;99627.63;5045548;28;20447;-61
2023/07/01 06:14:18;;;;;;;4.82;2.40;;;;;;;20.80;78.66;99616.34;5027746;28;20025;-61
2023/07/01 06:16:43;;;;;;;7.38;3.20;;;;;;;20.79;78.09;99598.38;5043565;28;20703;-61
2023/07/01 06:19:09;;;;;;;6.30;2.53;;;;;;;20.95;77.58;99604.25;5046700;28;20032;-61
2023/07/01 06:21:34;;;;;;;10.68;4.25;;;;;;;21.07;76.48;99607.84;5047280;28;20029;-61
2023/07/01 06:24:00;;;;;;;11.35;4.40;;;;;;;21.17;74.29;99602.56;5047602;28;20047;-61
2023/07/01 06:26:25;;;;;;;8.32;4.38;;;;;;;21.28;74.21;99607.94;5048425;28;20071;-61
2023/07/01 06:28:50;;;;;;;8.45;4.43;;;;;;;21.40;73.15;99599.66;5048901;28;20417;-61
2023/07/01 06:31:16;;;;;;;7.30;3.72;;;;;;;21.58;72.12;99591.84;5046098;28;20602;-61
2023/07/01 06:33:41;;;;;;;8.70;3.67;;;;;;;21.75;70.94;99593.97;5044751;28;20051;-60
2023/07/01 06:36:07;;;;;;;9.95;4.28;;;;;;;21.96;69.90;99594.88;5047801;28;20087;-60
2023/07/01 06:38:32;;;;;;;13.93;6.05;;;;;;;21.97;67.14;99593.91;5041757;28;20033;-61
2023/07/01 06:40:58;;;;;;;15.15;7.57;;;;;;;22.23;68.28;99584.38;5032571;28;20029;-61
2023/07/01 06:43:24;;;;;;;19.00;9.52;;;;;;;22.33;66.73;99595.28;5039177;28;20079;-61
2023/07/01 06:45:49;;;;;;;21.17;10.05;;;;;;;22.32;65.28;99597.16;5038473;28;20392;-61
2023/07/01 06:48:15;;;;;;;18.90;8.18;;;;;;;22.32;63.85;99594.44;5041341;28;20032;-61
2023/07/01 06:50:41;;;;;;;14.10;7.88;;;;;;;22.44;62.96;99593.34;5036415;28;20031;-61
2023/07/01 06:53:07;;;;;;;20.58;11.13;;;;;;;22.49;64.10;99601.94;5032562;28;20412;-61
2023/07/01 06:55:32;;;;;;;14.80;8.98;;;;;;;22.49;64.00;99601.94;5039622;28;20036;-61
2023/07/01 06:58:01;;;;;;;18.38;7.38;;;;;;;22.64;63.15;99595.19;5046802;28;20031;-61
2023/07/01 07:00:29;;;;;;;13.85;7.28;;;;;;;22.63;63.31;99603.47;5045003;28;20142;-61
2023/07/01 07:02:54;;;;;;;11.43;5.80;;;;;;;22.67;64.00;99602.22;5046439;28;20017;-61
2023/07/01 07:05:20;;;;;;;15.00;7.10;;;;;;;22.68;64.02;99591.22;5046129;28;20064;-62
2023/07/01 07:07:45;;;;;;;13.02;6.60;;;;;;;22.95;63.28;99593.28;5045877;28;20040;-61
2023/07/01 07:10:11;;;;;;;13.70;6.00;;;;;;;23.17;63.96;99587.66;5040044;28;20025;-61
2023/07/01 07:12:36;;;;;;;17.63;7.30;;;;;;;23.12;62.11;99584.50;5046703;28;20028;-61
2023/07/01 07:15:02;;;;;;;17.00;8.77;;;;;;;23.22;62.53;99588.97;5047350;28;20028;-61
2023/07/01 07:17:27;;;;;;;16.65;7.10;;;;;;;23.37;62.85;99584.03;5042270;28;20090;-61
2023/07/01 07:19:52;;;;;;;11.82;6.43;;;;;;;23.52;61.64;99571.75;5033308;28;20075;-61
2023/07/01 07:22:18;;;;;;;9.98;4.22;;;;;;;23.57;62.44;99579.47;5032804;28;20033;-61
2023/07/01 07:24:44;;;;;;;8.77;3.80;;;;;;;23.71;63.24;99573.59;5040801;28;20079;-61
2023/07/01 07:27:09;;;;;;;7.50;3.30;;;;;;;23.66;61.81;99573.19;5035255;28;20029;-61
2023/07/01 07:29:35;;;;;;;7.63;3.47;;;;;;;23.89;61.15;99572.72;5040537;28;20356;-61
2023/07/01 07:32:02;;;;;;;8.98;3.03;;;;;;;23.82;60.38;99568.03;5043031;28;20100;-61
2023/07/01 07:34:28;;;;;;;12.45;2.42;;;;;;;23.73;60.62;99553.44;5047951;28;20068;-61
2023/07/01 07:36:53;;;;;;;5.93;2.55;;;;;;;23.66;60.75;99556.91;5045024;28;20033;-61
2023/07/01 07:39:19;;;;;;;4.75;2.22;;;;;;;23.82;59.91;99562.59;5047819;28;20025;-61
2023/07/01 07:41:45;;;;;;;5.20;2.25;;;;;;;23.88;57.78;99562.00;5050015;28;20032;-61
2023/07/01 07:44:10;;;;;;;4.57;2.40;;;;;;;23.85;57.38;99551.44;5049969;28;20082;-61
2023/07/01 07:46:39;;;;;;;7.30;2.78;;;;;;;24.08;56.25;99559.16;5048926;28;20862;-61
2023/07/01 07:49:05;;;;;;;5.72;2.70;;;;;;;24.25;55.16;99568.44;5038811;28;20037;-61
2023/07/01 07:51:31;;;;;;;10.52;3.85;;;;;;;24.62;54.39;99552.97;5036344;28;20179;-62
2023/07/01 07:53:57;;;;;;;9.23;4.35;;;;;;;24.84;52.52;99559.94;5046145;28;20541;-61
2023/07/01 07:56:23;;;;;;;9.75;3.90;;;;;;;24.94;51.36;99561.59;5046908;28;20037;-60
2023/07/01 07:58:48;;;;;;;8.43;3.47;;;;;;;24.82;52.36;99557.38;5047651;28;20127;-62
2023/07/01 08:01:13;;;;;;;5.40;2.80;;;;;;;24.66;53.38;99548.97;5047072;28;20021;-61
2023/07/01 08:03:40;;;;;;;5.72;2.22;;;;;;;25.01;54.45;99548.25;5047583;28;20040;-62
2023/07/01 08:06:06;;;;;;;4.90;2.33;;;;;;;25.37;53.31;99545.44;5041134;28;20045;-62
2023/07/01 08:08:31;;;;;;;4.20;1.55;;;;;;;25.72;50.86;99540.00;5047565;28;20067;-61
2023/07/01 08:10:58;;;;;;;5.07;1.83;;;;;;;26.04;50.66;99535.84;5048192;28;20027;-61
2023/07/01 08:13:24;;;;;;;3.47;1.85;;;;;;;26.11;48.35;99534.19;5048170;28;20035;-61
2023/07/01 08:15:49;;;;;;;2.85;1.60;;;;;;;26.17;49.28;99549.91;5043826;28;20029;-61
2023/07/01 08:18:16;;;;;;;3.13;1.83;;;;;;;26.38;48.54;99537.63;5029034;28;20034;-60
2023/07/01 08:20:43;;;;;;;4.65;2.05;;;;;;;26.39;49.27;99533.03;5038186;28;20041;-61
2023/07/01 08:23:08;;;;;;;3.92;2.03;;;;;;;26.60;48.88;99526.16;5032921;28;20033;-61
2023/07/01 08:25:34;;;;;;;6.35;1.67;;;;;;;26.83;47.21;99527.31;5038879;28;20033;-61
2023/07/01 08:27:59;;;;;;;7.32;2.40;;;;;;;26.89;45.31;99537.56;5034084;28;20029;-61
2023/07/01 08:30:24;;;;;;;5.32;2.15;;;;;;;26.66;44.63;99530.97;5033944;28;20025;-61
2023/07/01 08:32:50;;;;;;;4.80;1.70;;;;;;;26.79;44.46;99527.78;5028444;28;20083;-60
2023/07/01 08:35:15;;;;;;;4.32;1.90;;;;;;;26.81;44.87;99521.16;5042375;28;20033;-60
2023/07/01 08:37:41;;;;;;;7.70;2.30;;;;;;;26.89;44.60;99523.06;5043276;28;20048;-61
2023/07/01 08:40:09;;;;;;;6.07;2.58;;;;;;;27.17;45.21;99516.31;5031346;28;20029;-61
2023/07/01 08:43:02;;;;;;;5.18;2.00;;;;;;;27.51;43.91;99511.66;5035180;28;20091;-61
2023/07/01 08:45:30;;;;;;;3.97;1.88;;;;;;;27.87;44.08;99513.03;5028093;28;20064;-60
2023/07/01 08:47:58;;;;;;;5.60;2.00;;;;;;;27.81;43.43;99505.50;5042334;28;20489;-61
2023/07/01 08:50:29;;;;;;;8.52;2.30;;;;;;;28.05;43.84;99518.34;5039466;28;20112;-61
2023/07/01 08:53:05;;;;;;;6.25;2.03;;;;;;;28.56;42.72;99514.31;5031728;28;20541;-61
2023/07/01 08:55:31;;;;;;;8.50;2.35;;;;;;;28.33;41.64;99504.09;5030697;28;20120;-60
2023/07/01 08:57:57;;;;;;;6.53;2.20;;;;;;;27.69;41.45;99520.53;5031813;28;20128;-60
2023/07/01 09:00:22;;;;;;;7.93;1.80;;;;;;;27.18;42.32;99512.59;5042795;28;20420;-61
2023/07/01 09:02:48;;;;;;;9.50;2.70;;;;;;;26.86;42.85;99505.16;5035755;28;20100;-61
2023/07/01 09:05:13;;;;;;;7.20;2.30;;;;;;;26.86;42.92;99499.69;5043711;28;20132;-61
2023/07/01 09:07:41;;;;;;;5.18;1.92;;;;;;;26.89;42.33;99493.88;5034095;28;20086;-61
2023/07/01 09:10:07;;;;;;;4.38;1.95;;;;;;;26.63;43.09;99498.53;5028002;28;20466;-61
2023/07/01 09:12:33;;;;;;;5.07;1.83;;;;;;;26.65;43.55;99490.19;5027718;28;20029;-62
2023/07/01 09:15:04;;;;;;;6.45;2.10;;;;;;;26.48;42.52;99486.53;5032833;28;20037;-61
2023/07/01 09:17:37;;;;;;;6.47;2.13;;;;;;;26.24;44.16;99488.28;5037104;28;20028;-61
2023/07/01 09:20:09;;;;;;;5.97;1.80;;;;;;;26.09;44.49;99482.56;5028957;28;20040;-62
2023/07/01 09:22:36;;;;;;;4.20;1.67;;;;;;;26.19;44.44;99487.91;5032094;28;20033;-61
2023/07/01 09:25:02;;;;;;;5.05;1.60;;;;;;;26.19;43.93;99482.44;5045104;28;20021;-61
2023/07/01 09:27:46;;;;;;;3.40;1.40;;;;;;;26.13;42.92;99489.38;5039782;28;20090;-61
2023/07/01 09:30:20;;;;;;;2.97;1.45;;;;;;;26.11;43.16;99485.13;5042030;28;20032;-61
2023/07/01 09:32:46;;;;;;;3.10;1.63;;;;;;;26.29;42.81;99484.06;5028998;28;20033;-61
2023/07/01 09:35:12;;;;;;;3.58;1.52;;;;;;;26.66;42.04;99492.78;5040515;28;20517;-61
2023/07/01 09:37:38;;;;;;;5.45;1.88;;;;;;;26.61;41.00;99480.59;5044901;28;20032;-61
2023/07/01 09:40:24;;;;;;;5.40;2.30;;;;;;;26.47;41.98;99481.25;5046364;28;20032;-61
2023/07/01 09:42:51;;;;;;;7.15;2.30;;;;;;;26.68;41.86;99473.50;5025363;28;20040;-61
2023/07/01 09:45:16;;;;;;;2.70;1.35;;;;;;;26.60;41.06;99481.63;5029106;28;20029;-60
2023/07/01 09:47:42;;;;;;;5.93;1.80;;;;;;;26.63;41.82;99473.13;5038326;28;20043;-61
2023/07/01 09:50:07;;;;;;;2.65;1.15;;;;;;;26.99;41.77;99477.34;5031292;28;20025;-61
2023/07/01 09:52:34;;;;;;;4.18;1.70;;;;;;;27.49;40.85;99467.25;5037502;28;20037;-61
2023/07/01 09:55:04;;;;;;;4.07;1.88;;;;;;;27.69;41.48;99463.16;5026590;28;20033;-62
2023/07/01 09:57:30;;;;;;;7.15;2.78;;;;;;;27.89;39.91;99472.72;5036792;28;20021;-61
2023/07/01 09:59:56;;;;;;;5.05;1.73;;;;;;;27.89;39.16;99461.78;5037329;28;20086;-62
2023/07/01 10:02:23;;;;;;;2.90;1.17;;;;;;;27.92;38.73;99460.59;5031554;28;20515;-60
2023/07/01 10:04:48;;;;;;;3.60;1.30;;;;;;;28.17;38.79;99454.06;5026555;28;20049;-60
2023/07/01 10:07:14;;;;;;;3.33;1.50;;;;;;;27.92;38.17;99450.50;5028730;28;20079;-59
2023/07/01 10:09:47;;;;;;;4.30;1.30;;;;;;;27.91;38.24;99437.84;5026862;28;20029;-59
2023/07/01 10:12:15;;;;;;;2.22;1.13;;;;;;;27.86;38.59;99451.16;5035124;28;20036;-59
2023/07/01 10:14:42;;;;;;;4.72;1.33;;;;;;;27.68;39.58;99455.97;5026907;28;20120;-59
2023/07/01 10:17:08;;;;;;;6.40;1.80;;;;;;;27.69;39.52;99463.16;5028378;28;20036;-60
2023/07/01 10:19:34;;;;;;;7.50;1.80;;;;;;;27.66;41.35;99458.00;5028761;28;20394;-59
2023/07/01 10:22:18;;;;;;;3.35;1.77;;;;;;;27.61;41.32;99451.34;5037831;28;20033;-60
2023/07/01 10:24:44;;;;;;;6.00;1.83;;;;;;;27.73;40.60;99453.56;5008980;28;20439;-59
2023/07/01 10:27:09;;;;;;;3.97;1.50;;;;;;;27.59;39.99;99448.81;5033995;28;20124;-60
2023/07/01 10:29:36;;;;;;;4.10;1.20;;;;;;;27.17;40.88;99445.31;5040224;28;20084;-59
2023/07/01 10:32:13;;;;;;;3.45;1.55;;;;;;;26.86;42.18;99447.81;5040446;28;20384;-60
2023/07/01 10:34:58;;;;;;;5.03;1.55;;;;;;;26.61;42.11;99456.03;5037917;28;20477;-60
2023/07/01 10:37:28;;;;;;;4.95;1.30;;;;;;;26.59;42.36;99450.75;5034796;28;20029;-59
2023/07/01 10:39:58;;;;;;;3.72;1.15;;;;;;;26.47;43.05;99452.09;5025871;28;20025;-59
2023/07/01 10:42:31;;;;;;;3.10;1.45;;;;;;;26.13;42.76;99434.03;5026280;28;20063;-59
2023/07/01 10:45:11;;;;;;;3.10;1.50;;;;;;;26.17;43.51;99444.44;5044010;28;20036;-60
2023/07/01 10:47:44;;;;;;;2.92;1.30;;;;;;;25.94;43.40;99441.38;5025080;28;20115;-59
2023/07/01 10:50:18;;;;;;;5.32;1.33;;;;;;;25.83;43.93;99444.34;5024642;28;20136;-60
2023/07/01 10:52:59;;;;;;;2.42;1.30;;;;;;;25.77;44.12;99438.69;5035830;28;20075;-59
2023/07/01 10:55:49;;;;;;;3.38;1.42;;;;;;;25.51;43.95;99446.84;5044899;28;20033;-59
2023/07/01 10:58:28;;;;;;;2.22;1.35;;;;;;;25.65;44.46;99432.66;5041773;28;20024;-59
2023/07/01 11:00:54;;;;;;;3.78;1.63;;;;;;;25.59;44.92;99435.16;5036425;28;20112;-60
2023/07/01 11:03:35;;;;;;;3.30;1.48;;;;;;;25.60;44.99;99440.44;5039592;28;20037;-60
2023/07/01 11:06:10;;;;;;;3.00;1.30;;;;;;;25.60;45.20;99435.00;5026420;28;20061;-58
2023/07/01 11:08:53;;;;;;;3.58;1.55;;;;;;;25.42;45.94;99428.72;5037232;28;20143;-60
2023/07/01 11:11:20;;;;;;;2.83;1.10;;;;;;;25.35;45.24;99434.97;5047614;28;20040;-62
2023/07/01 11:14:03;;;;;;;3.25;1.30;;;;;;;25.34;45.23;99431.34;5033645;28;20151;-60
2023/07/01 11:16:30;;;;;;;5.68;1.42;;;;;;;25.47;45.49;99426.38;5030072;28;20044;-60
2023/07/01 11:18:58;;;;;;;4.90;1.80;;;;;;;25.51;44.52;99427.78;5033775;28;20025;-60
2023/07/01 11:21:26;;;;;;;3.65;1.50;;;;;;;25.66;45.69;99415.31;5033432;28;20428;-60
2023/07/01 11:23:52;;;;;;;3.67;1.27;;;;;;;25.76;44.74;99413.34;5030718;28;20030;-60
2023/07/01 11:26:20;;;;;;;4.22;1.40;;;;;;;25.81;44.94;99401.94;5037824;28;20037;-60
2023/07/01 11:28:45;;;;;;;7.00;1.55;;;;;;;26.10;44.81;99415.25;5038767;28;20220;-60
2023/07/01 11:31:15;;;;;;;2.85;1.40;;;;;;;26.14;45.05;99409.31;5041409;28;20025;-60